Terminal Aerodrome Forecast
Issued by NWS Sterling, VA

Current Version | Previous Version | Graphics & Text | Print | Product List | Glossary On
Versions: 1 2 3 4 5 6 7 8 9 10 11 12 13 14 15 16 17 18 19 20 21 22 23 24 25
000
FTUS41 KLWX 270300 AAA
TAFIAD
TAF AMD
KIAD 270316Z 2703/2806 36011G19KT 3/4SM -SN BR OVC007
     FM270600 34010KT 1 1/2SM -SN BR OVC010
     FM271400 33012G20KT P6SM OVC015
     FM271800 32013G21KT P6SM OVC025
     FM272000 32014G23KT P6SM BKN040
     FM280100 32014KT P6SM SCT050=

USA.gov is the U.S. government's official web portal to all federal, state and local government web resources and services.